createdAt,value
2019-01-25T00:03:14.975Z,97906.52
2019-01-25T00:09:58.487Z,97910.50
2019-01-25T00:16:19.511Z,97913.95
2019-01-25T00:22:45.359Z,97916.77
2019-01-25T00:29:09.199Z,97901.17
2019-01-25T00:34:58.819Z,97909.08
2019-01-25T00:41:24.403Z,97908.75
2019-01-25T00:47:50.258Z,97920.05
2019-01-25T00:54:16.922Z,97916.08
2019-01-25T01:04:30.369Z,97920.72
2019-01-25T01:10:58.005Z,97929.81
2019-01-25T01:17:26.721Z,97924.56
2019-01-25T01:23:52.883Z,97932.14
2019-01-25T01:30:29.809Z,97927.84
2019-01-25T01:36:18.262Z,97939.14
2019-01-25T01:42:48.120Z,97936.58
2019-01-25T01:49:12.929Z,97936.13
2019-01-25T01:55:38.755Z,97920.74
2019-01-25T02:05:43.741Z,97923.53
2019-01-25T02:12:11.361Z,97928.80
2019-01-25T02:18:38.413Z,97922.84
2019-01-25T02:25:03.878Z,97925.53
2019-01-25T02:31:30.047Z,97924.84
2019-01-25T02:37:25.570Z,97917.73
2019-01-25T02:43:51.390Z,97916.20
2019-01-25T02:50:21.885Z,97920.39
2019-01-25T02:56:50.100Z,97924.15
2019-01-25T03:07:02.963Z,97906.55
2019-01-25T03:13:42.122Z,97908.88
2019-01-25T03:20:23.744Z,97911.21
2019-01-25T03:27:06.806Z,97918.30
2019-01-25T03:33:24.840Z,97922.16
2019-01-25T03:39:18.331Z,97928.10
2019-01-25T03:45:48.710Z,97930.56
2019-01-25T03:52:24.800Z,97923.56
2019-01-25T03:58:55.990Z,97928.58
2019-01-25T04:09:16.943Z,97923.80
2019-01-25T04:15:43.615Z,97937.91
2019-01-25T04:22:08.643Z,97934.76
2019-01-25T04:28:32.442Z,97933.25
2019-01-25T04:35:05.259Z,97927.06
2019-01-25T04:41:03.009Z,97931.59
2019-01-25T04:47:36.913Z,97936.98
2019-01-25T04:54:06.418Z,97938.95
2019-01-25T05:00:38.409Z,97946.05
2019-01-25T05:10:04.898Z,97951.55
2019-01-25T05:16:32.807Z,97959.47
2019-01-25T05:23:21.137Z,97967.16
2019-01-25T05:30:07.107Z,97961.80
2019-01-25T05:36:34.596Z,97973.22
2019-01-25T05:43:02.481Z,97979.75
2019-01-25T05:49:33.710Z,97979.75
2019-01-25T05:56:11.655Z,97980.47
2019-01-25T06:02:50.600Z,97985.24
2019-01-25T06:12:27.065Z,97993.52
2019-01-25T06:18:52.918Z,97986.98
2019-01-25T06:25:19.960Z,97989.44
2019-01-25T06:31:48.810Z,98002.03
2019-01-25T06:38:02.276Z,98006.47
2019-01-25T06:44:28.120Z,98026.19
2019-01-25T06:50:59.195Z,98028.63
2019-01-25T06:57:38.153Z,98037.14
2019-01-25T07:04:05.216Z,98043.91
2019-01-25T07:13:55.841Z,98045.89
2019-01-25T07:20:21.428Z,98043.68
2019-01-25T07:27:00.394Z,98052.79
2019-01-25T07:33:37.291Z,98054.76
2019-01-25T07:39:39.806Z,98062.92
2019-01-25T07:46:24.899Z,98060.48
2019-01-25T07:53:05.904Z,98068.77
2019-01-25T07:59:35.980Z,98080.31
2019-01-25T08:06:04.830Z,98081.48
2019-01-25T08:16:20.964Z,98091.74
2019-01-25T08:23:03.922Z,98095.62
2019-01-25T08:29:42.877Z,98099.83
2019-01-25T08:36:19.802Z,98091.62
2019-01-25T08:42:56.749Z,98089.88
2019-01-25T08:49:37.704Z,98096.20
2019-01-25T08:56:19.272Z,98109.51
2019-01-25T09:02:45.123Z,98112.53
2019-01-25T09:09:14.247Z,98109.61
2019-01-25T09:18:36.922Z,98121.28
2019-01-25T09:25:18.462Z,98111.48
2019-01-25T09:31:58.649Z,98123.83
2019-01-25T09:38:45.807Z,98134.02
2019-01-25T09:45:23.836Z,98135.52
2019-01-25T09:51:49.649Z,98138.91
2019-01-25T09:58:20.145Z,98138.54
2019-01-25T10:04:49.274Z,98134.67
2019-01-25T10:11:16.200Z,98130.58
2019-01-25T10:20:54.711Z,98141.52
2019-01-25T10:27:24.125Z,98137.20
2019-01-25T10:33:49.603Z,98125.83
2019-01-25T10:40:17.446Z,98131.97
2019-01-25T10:46:54.394Z,98134.30
2019-01-25T10:53:33.320Z,98131.58
2019-01-25T10:59:59.182Z,98119.08
2019-01-25T11:06:24.963Z,98126.65
2019-01-25T11:12:51.411Z,98133.03
2019-01-25T11:22:23.221Z,98124.34
2019-01-25T11:29:02.180Z,98112.88
2019-01-25T11:35:28.864Z,98106.84
2019-01-25T11:41:57.070Z,98107.88
2019-01-25T11:48:22.897Z,98096.94
2019-01-25T11:54:59.818Z,98088.34
2019-01-25T12:01:27.666Z,98072.42
2019-01-25T12:07:58.178Z,98080.24
2019-01-25T12:14:26.368Z,98090.40
2019-01-25T12:24:40.453Z,98104.80
2019-01-25T12:31:09.300Z,98103.34
2019-01-25T12:37:38.151Z,98095.22
2019-01-25T12:44:01.946Z,98095.17
2019-01-25T12:50:53.774Z,98105.39
2019-01-25T12:57:32.988Z,98090.96
2019-01-25T13:04:00.638Z,98083.96
2019-01-25T13:09:50.289Z,98076.73
2019-01-25T13:16:15.876Z,98069.48
2019-01-25T13:26:19.079Z,98077.88
2019-01-25T13:32:56.010Z,98091.48
2019-01-25T13:39:21.832Z,98105.73
2019-01-25T13:45:52.345Z,98106.19
2019-01-25T13:52:18.523Z,98104.97
2019-01-25T13:58:44.339Z,98095.34
2019-01-25T14:05:12.200Z,98092.67
2019-01-25T14:11:01.638Z,98099.75
2019-01-25T14:17:29.230Z,98092.55
2019-01-25T14:27:43.227Z,98075.98
2019-01-25T14:34:22.511Z,98084.61
2019-01-25T14:41:11.330Z,98086.31
2019-01-25T14:47:49.501Z,98069.87
2019-01-25T14:54:31.356Z,98065.09
2019-01-25T15:00:58.041Z,98051.28
2019-01-25T15:07:47.425Z,98047.17
2019-01-25T15:14:24.949Z,98059.38
2019-01-25T15:20:58.192Z,98062.08
2019-01-25T15:30:50.580Z,98063.71
2019-01-25T15:37:31.020Z,98049.81
2019-01-25T15:44:10.136Z,98054.67
2019-01-25T15:50:48.926Z,98043.58
2019-01-25T15:57:27.873Z,98049.28
2019-01-25T16:04:17.027Z,98036.30
2019-01-25T16:10:45.769Z,98032.69
2019-01-25T16:17:11.593Z,98053.79
2019-01-25T16:23:39.997Z,98068.21
2019-01-25T16:33:18.178Z,98054.96
2019-01-25T16:39:51.053Z,98068.30
2019-01-25T16:46:16.878Z,98079.63
2019-01-25T16:52:45.724Z,98066.49
2019-01-25T16:59:17.604Z,98051.05
2019-01-25T17:05:43.179Z,98050.02
2019-01-25T17:12:12.710Z,98060.05
2019-01-25T17:18:33.451Z,98078.02
2019-01-25T17:24:56.841Z,98075.45
2019-01-25T17:34:33.560Z,98068.45
2019-01-25T17:41:22.603Z,98068.94
2019-01-25T17:48:06.604Z,98058.95
2019-01-25T17:54:39.488Z,98067.18
2019-01-25T18:01:24.341Z,98049.06
2019-01-25T18:08:02.071Z,98037.02
2019-01-25T18:14:49.183Z,98032.48
2019-01-25T18:21:26.405Z,98029.81
2019-01-25T18:28:27.366Z,98029.66
2019-01-25T18:38:08.329Z,98023.64
2019-01-25T18:41:16.863Z,98021.53
2019-01-25T18:47:23.831Z,98015.26
2019-01-25T18:54:03.217Z,98019.37
2019-01-25T19:00:31.630Z,98019.73
2019-01-25T19:07:05.523Z,98008.73
2019-01-25T19:10:36.623Z,98010.95
2019-01-25T19:17:18.357Z,98002.30
2019-01-25T19:23:57.307Z,97991.27
2019-01-25T19:30:41.190Z,97979.90
2019-01-25T19:37:23.423Z,97966.97
2019-01-25T19:47:42.335Z,97976.30
2019-01-25T19:54:06.454Z,97974.06
2019-01-25T20:00:43.384Z,97983.87
2019-01-25T20:07:22.336Z,97960.94
2019-01-25T20:14:04.319Z,97961.45
2019-01-25T20:20:44.012Z,97947.75
2019-01-25T20:27:24.194Z,97938.73
2019-01-25T20:33:52.071Z,97938.27
2019-01-25T20:40:37.081Z,97948.30
2019-01-25T20:46:55.672Z,97954.47
2019-01-25T20:53:21.653Z,97954.33
2019-01-25T21:00:08.351Z,97957.34
2019-01-25T21:06:44.599Z,97965.73
2019-01-25T21:13:25.361Z,97957.90
2019-01-25T21:19:52.031Z,97940.70
2019-01-25T21:26:18.214Z,97916.83
2019-01-25T21:32:48.106Z,97926.39
2019-01-25T21:39:15.917Z,97924.23
2019-01-25T21:45:05.395Z,97916.83
2019-01-25T21:51:30.971Z,97914.20
2019-01-25T21:58:05.295Z,97914.49
2019-01-25T22:04:29.913Z,97914.76
2019-01-25T22:11:04.822Z,97905.02
2019-01-25T22:17:47.813Z,97914.61
2019-01-25T22:24:28.783Z,97904.48
2019-01-25T22:31:12.788Z,97911.94
2019-01-25T22:37:49.332Z,97910.19
2019-01-25T22:44:39.776Z,97913.58
2019-01-25T22:51:00.286Z,97916.55
2019-01-25T22:57:41.294Z,97917.44
2019-01-25T23:05:14.738Z,97903.95
2019-01-25T23:11:40.822Z,97900.55
2019-01-25T23:18:11.339Z,97898.37
2019-01-25T23:24:37.191Z,97890.05
2019-01-25T23:31:08.379Z,97881.39
2019-01-25T23:37:39.951Z,97881.87
2019-01-25T23:44:12.760Z,97878.36
2019-01-25T23:50:27.858Z,97876.53
2019-01-25T23:56:53.409Z,97880.75
